createdAt,value
2022-12-24T00:01:08.344Z,2.40
2022-12-24T00:03:37.828Z,2.40
2022-12-24T00:06:06.037Z,2.10
2022-12-24T00:08:33.626Z,2.20
2022-12-24T00:11:01.255Z,2.47
2022-12-24T00:13:28.935Z,2.20
2022-12-24T00:15:56.556Z,2.40
2022-12-24T00:18:25.481Z,2.50
2022-12-24T00:20:53.551Z,2.58
2022-12-24T00:23:21.248Z,1.77
2022-12-24T00:25:49.136Z,2.50
2022-12-24T00:28:18.109Z,2.10
2022-12-24T00:30:45.866Z,2.42
2022-12-24T00:33:13.470Z,2.70
2022-12-24T00:35:42.393Z,2.28
2022-12-24T00:38:10.482Z,2.10
2022-12-24T00:40:38.084Z,2.40
2022-12-24T00:43:05.625Z,2.45
2022-12-24T00:45:33.171Z,2.40
2022-12-24T00:48:00.740Z,2.50
2022-12-24T00:50:28.278Z,2.22
2022-12-24T00:52:57.169Z,2.50
2022-12-24T00:55:24.717Z,2.50
2022-12-24T00:57:52.361Z,2.35
2022-12-24T01:00:21.140Z,2.25
2022-12-24T01:02:48.788Z,2.33
2022-12-24T01:05:15.504Z,2.38
2022-12-24T01:07:44.987Z,2.70
2022-12-24T01:10:15.823Z,2.28
2022-12-24T01:12:44.254Z,2.70
2022-12-24T01:15:14.711Z,2.53
2022-12-24T01:17:42.379Z,3.13
2022-12-24T01:20:14.663Z,2.63
2022-12-24T01:22:42.299Z,2.47
2022-12-24T01:25:10.659Z,2.55
2022-12-24T01:27:39.846Z,2.80
2022-12-24T01:30:10.107Z,2.35
2022-12-24T01:32:37.776Z,2.65
2022-12-24T01:35:06.188Z,2.60
2022-12-24T01:37:33.762Z,2.60
2022-12-24T01:40:15.351Z,2.45
2022-12-24T01:43:06.514Z,2.60
2022-12-24T01:45:42.995Z,2.63
2022-12-24T01:48:17.055Z,2.28
2022-12-24T01:50:45.368Z,2.70
2022-12-24T01:53:16.043Z,2.92
2022-12-24T01:55:45.711Z,2.45
2022-12-24T01:58:16.697Z,2.60
2022-12-24T02:00:44.349Z,2.63
2022-12-24T02:03:12.407Z,2.70
2022-12-24T02:05:47.471Z,2.80
2022-12-24T02:08:16.027Z,2.30
2022-12-24T02:10:43.974Z,2.90
2022-12-24T02:13:11.961Z,2.33
2022-12-24T02:16:05.043Z,2.20
2022-12-24T02:18:40.898Z,2.40
2022-12-24T02:21:35.767Z,2.60
2022-12-24T02:24:23.372Z,2.60
2022-12-24T02:27:18.319Z,2.65
2022-12-24T02:30:15.668Z,2.53
2022-12-24T02:32:57.752Z,2.42
2022-12-24T02:35:32.829Z,2.60
2022-12-24T02:38:05.257Z,2.63
2022-12-24T02:40:37.707Z,2.50
2022-12-24T02:43:10.897Z,2.85
2022-12-24T02:45:43.173Z,2.35
2022-12-24T02:48:14.022Z,2.35
2022-12-24T02:50:41.842Z,2.60
2022-12-24T02:53:10.895Z,2.72
2022-12-24T02:55:48.523Z,2.80
2022-12-24T02:58:34.879Z,2.38
2022-12-24T03:01:18.673Z,2.67
2022-12-24T03:04:01.241Z,2.65
2022-12-24T03:06:37.552Z,2.88
2022-12-24T03:09:10.709Z,2.72
2022-12-24T03:11:41.300Z,2.53
2022-12-24T03:14:09.183Z,2.88
2022-12-24T03:16:38.305Z,2.80
2022-12-24T03:19:06.474Z,2.92
2022-12-24T03:21:37.419Z,2.50
2022-12-24T03:24:05.463Z,2.92
2022-12-24T03:26:34.697Z,2.70
2022-12-24T03:29:06.627Z,2.80
2022-12-24T03:31:44.039Z,2.60
2022-12-24T03:34:12.521Z,2.55
2022-12-24T03:36:40.290Z,2.85
2022-12-24T03:39:08.202Z,3.67
2022-12-24T03:41:36.179Z,4.03
2022-12-24T03:44:04.000Z,3.90
2022-12-24T03:46:31.843Z,3.40
2022-12-24T03:49:00.820Z,3.70
2022-12-24T03:51:28.596Z,3.10
2022-12-24T03:53:58.500Z,3.08
2022-12-24T03:56:27.046Z,3.42
2022-12-24T03:58:54.672Z,2.92
2022-12-24T04:01:22.442Z,3.33
2022-12-24T04:03:50.104Z,3.03
2022-12-24T04:06:19.156Z,3.30
2022-12-24T04:08:47.158Z,3.40
2022-12-24T04:11:16.406Z,3.28
2022-12-24T04:13:44.123Z,3.58
2022-12-24T04:16:13.572Z,3.35
2022-12-24T04:18:41.941Z,3.75
2022-12-24T04:21:10.273Z,3.67
2022-12-24T04:23:41.652Z,3.63
2022-12-24T04:26:12.386Z,3.78
2022-12-24T04:28:40.721Z,3.47
2022-12-24T04:31:10.669Z,2.75
2022-12-24T04:33:38.417Z,3.20
2022-12-24T04:36:08.091Z,3.60
2022-12-24T04:38:36.299Z,3.38
2022-12-24T04:41:07.643Z,3.45
2022-12-24T04:43:35.869Z,3.08
2022-12-24T04:46:07.290Z,3.40
2022-12-24T04:48:35.479Z,3.83
2022-12-24T04:51:04.081Z,3.40
2022-12-24T04:53:32.578Z,3.45
2022-12-24T04:56:00.333Z,3.42
2022-12-24T04:58:29.902Z,3.90
2022-12-24T05:00:57.801Z,3.30
2022-12-24T05:03:25.517Z,3.40
2022-12-24T05:05:59.587Z,3.58
2022-12-24T05:08:29.057Z,3.70
2022-12-24T05:10:57.940Z,3.80
2022-12-24T05:13:31.958Z,4.15
2022-12-24T05:16:06.187Z,3.95
2022-12-24T05:18:33.774Z,3.90
2022-12-24T05:21:04.015Z,3.90
2022-12-24T05:23:49.080Z,3.90
2022-12-24T05:26:24.437Z,3.95
2022-12-24T05:28:53.739Z,4.27
2022-12-24T05:31:23.761Z,3.97
2022-12-24T05:33:51.518Z,4.00
2022-12-24T05:36:19.121Z,3.70
2022-12-24T05:38:46.734Z,4.20
2022-12-24T05:41:14.622Z,3.80
2022-12-24T05:43:42.235Z,4.23
2022-12-24T05:46:11.613Z,3.85
2022-12-24T05:48:40.845Z,4.30
2022-12-24T05:51:10.511Z,3.88
2022-12-24T05:53:38.328Z,3.97
2022-12-24T05:56:07.459Z,3.97
2022-12-24T05:58:35.719Z,3.40
2022-12-24T06:01:05.466Z,3.80
2022-12-24T06:03:34.171Z,4.07
2022-12-24T06:06:05.842Z,4.00
2022-12-24T06:08:34.336Z,3.90
2022-12-24T06:11:04.617Z,4.32
2022-12-24T06:13:32.841Z,3.85
2022-12-24T06:16:02.411Z,3.83
2022-12-24T06:18:30.948Z,4.25
2022-12-24T06:21:00.020Z,4.10
2022-12-24T06:23:31.172Z,3.20
2022-12-24T06:26:00.785Z,3.92
2022-12-24T06:28:29.219Z,3.95
2022-12-24T06:31:02.395Z,4.07
2022-12-24T06:33:31.116Z,4.23
2022-12-24T06:35:58.762Z,4.13
2022-12-24T06:38:27.041Z,4.03
2022-12-24T06:40:56.410Z,4.10
2022-12-24T06:43:24.026Z,4.82
2022-12-24T06:45:51.642Z,4.10
2022-12-24T06:48:19.260Z,4.38
2022-12-24T06:50:47.119Z,4.30
2022-12-24T06:53:14.727Z,3.63
2022-12-24T06:55:42.397Z,4.45
2022-12-24T06:58:11.689Z,4.03
2022-12-24T07:00:39.777Z,3.83
2022-12-24T07:03:07.823Z,4.57
2022-12-24T07:05:35.377Z,4.13
2022-12-24T07:08:03.126Z,3.80
2022-12-24T07:10:30.775Z,4.32
2022-12-24T07:12:58.469Z,5.00
2022-12-24T07:15:27.436Z,4.78
2022-12-24T07:17:55.153Z,4.47
2022-12-24T07:20:22.773Z,4.15
2022-12-24T07:22:50.345Z,4.70
2022-12-24T07:25:18.043Z,5.20
2022-12-24T07:27:45.770Z,4.55
2022-12-24T07:30:13.772Z,4.60
2022-12-24T07:32:42.884Z,5.90
2022-12-24T07:35:11.215Z,5.80
2022-12-24T07:37:39.087Z,6.18
2022-12-24T07:40:09.817Z,5.60
2022-12-24T07:42:37.447Z,6.63
2022-12-24T07:45:06.543Z,6.00
2022-12-24T07:47:34.132Z,5.75
2022-12-24T07:50:03.043Z,4.80
2022-12-24T07:52:30.609Z,5.33
2022-12-24T07:54:58.197Z,4.88
2022-12-24T07:57:25.763Z,4.83
2022-12-24T07:59:53.384Z,4.22
2022-12-24T08:02:21.255Z,5.03
2022-12-24T08:04:49.125Z,5.03
2022-12-24T08:07:18.112Z,4.38
2022-12-24T08:09:46.209Z,4.60
2022-12-24T08:12:14.000Z,4.50
2022-12-24T08:14:41.775Z,4.28
2022-12-24T08:17:09.398Z,4.60
2022-12-24T08:19:37.063Z,4.20
2022-12-24T08:22:04.618Z,4.60
2022-12-24T08:24:33.793Z,4.55
2022-12-24T08:27:01.363Z,4.05
2022-12-24T08:29:29.118Z,4.00
2022-12-24T08:31:56.788Z,4.60
2022-12-24T08:34:24.386Z,4.97
2022-12-24T08:36:52.008Z,5.03
2022-12-24T08:39:19.886Z,5.05
2022-12-24T08:41:48.856Z,7.30
2022-12-24T08:44:16.486Z,4.57
2022-12-24T08:46:44.085Z,4.40
2022-12-24T08:49:11.800Z,4.63
2022-12-24T08:51:39.557Z,4.10
2022-12-24T08:54:07.144Z,4.55
2022-12-24T08:56:35.004Z,6.10
2022-12-24T08:59:04.075Z,5.32
2022-12-24T09:01:31.984Z,7.33
2022-12-24T09:03:59.674Z,4.85
2022-12-24T09:06:27.293Z,8.68
2022-12-24T09:08:54.999Z,6.57
2022-12-24T09:11:22.659Z,5.95
2022-12-24T09:13:50.327Z,5.03
2022-12-24T09:16:19.415Z,4.47
2022-12-24T09:18:47.348Z,4.57
2022-12-24T09:21:17.516Z,4.78
2022-12-24T09:23:47.425Z,5.10
2022-12-24T09:26:17.560Z,4.63
2022-12-24T09:28:45.347Z,4.20
2022-12-24T09:31:14.399Z,3.97
2022-12-24T09:33:45.252Z,4.25
2022-12-24T09:36:13.277Z,4.35
2022-12-24T09:38:41.056Z,4.40
2022-12-24T09:41:16.725Z,3.97
2022-12-24T09:43:48.499Z,3.88
2022-12-24T09:46:24.169Z,4.18
2022-12-24T09:48:56.881Z,4.43
2022-12-24T09:51:30.447Z,4.93
2022-12-24T09:54:04.012Z,4.10
2022-12-24T09:56:34.578Z,4.25
2022-12-24T09:59:04.047Z,4.65
2022-12-24T10:01:33.490Z,4.50
2022-12-24T10:04:08.454Z,4.07
2022-12-24T10:06:41.302Z,4.20
2022-12-24T10:09:17.179Z,3.78
2022-12-24T10:11:52.424Z,4.20
2022-12-24T10:14:34.985Z,4.43
2022-12-24T10:17:18.580Z,4.25
2022-12-24T10:19:53.533Z,4.15
2022-12-24T10:22:29.518Z,4.28
2022-12-24T10:25:05.283Z,4.25
2022-12-24T10:27:37.357Z,4.03
2022-12-24T10:30:17.275Z,5.05
2022-12-24T10:32:48.203Z,5.38
2022-12-24T10:35:23.941Z,5.03
2022-12-24T10:37:53.627Z,4.90
2022-12-24T10:40:30.588Z,4.25
2022-12-24T10:42:58.638Z,4.30
2022-12-24T10:45:37.476Z,4.15
2022-12-24T10:48:10.662Z,4.25
2022-12-24T10:50:42.688Z,4.10
2022-12-24T10:53:19.530Z,4.35
2022-12-24T10:55:48.538Z,3.70
2022-12-24T10:58:19.382Z,4.30
2022-12-24T11:00:51.766Z,4.28
2022-12-24T11:03:25.053Z,3.90
2022-12-24T11:06:14.131Z,7.30
2022-12-24T11:08:43.880Z,4.93
2022-12-24T11:11:14.510Z,4.50
2022-12-24T11:13:45.749Z,4.15
2022-12-24T11:16:21.037Z,3.97
2022-12-24T11:18:52.307Z,4.53
2022-12-24T11:21:24.568Z,3.75
2022-12-24T11:23:55.467Z,5.05
2022-12-24T11:26:25.578Z,5.03
2022-12-24T11:29:13.086Z,4.40
2022-12-24T11:31:40.874Z,4.70
2022-12-24T11:34:26.964Z,4.57
2022-12-24T11:37:14.303Z,4.25
2022-12-24T11:39:47.527Z,4.20
2022-12-24T11:42:27.061Z,4.28
2022-12-24T11:44:57.211Z,4.40
2022-12-24T11:47:34.563Z,4.50
2022-12-24T11:50:29.178Z,4.20
2022-12-24T11:53:05.725Z,4.47
2022-12-24T11:55:42.279Z,4.50
2022-12-24T11:58:21.280Z,3.90
2022-12-24T12:00:51.761Z,4.07
2022-12-24T12:03:31.530Z,4.47
2022-12-24T12:06:02.201Z,4.15
2022-12-24T12:08:32.517Z,4.53
2022-12-24T12:11:00.954Z,4.30
2022-12-24T12:13:33.526Z,4.00
2022-12-24T12:16:15.053Z,3.78
2022-12-24T12:18:50.585Z,4.00
2022-12-24T12:21:20.905Z,4.43
2022-12-24T12:23:55.681Z,4.18
2022-12-24T12:26:26.256Z,4.20
2022-12-24T12:28:57.161Z,4.47
2022-12-24T12:31:29.434Z,4.05
2022-12-24T12:34:01.428Z,4.70
2022-12-24T12:36:35.143Z,4.20
2022-12-24T12:39:04.811Z,4.22
2022-12-24T12:41:48.802Z,4.15
2022-12-24T12:44:42.893Z,4.78
2022-12-24T12:47:28.412Z,6.13
2022-12-24T12:50:04.386Z,5.45
2022-12-24T12:52:46.067Z,6.82
2022-12-24T12:55:28.670Z,6.77
2022-12-24T12:58:00.960Z,3.75
2022-12-24T13:00:32.006Z,3.65
2022-12-24T13:03:28.831Z,3.35
2022-12-24T13:06:24.577Z,3.13
2022-12-24T13:09:21.160Z,5.20
2022-12-24T13:12:16.220Z,5.57
2022-12-24T13:15:07.542Z,7.03
2022-12-24T13:18:00.111Z,3.97
2022-12-24T13:20:30.515Z,10.43
2022-12-24T13:23:01.623Z,7.57
2022-12-24T13:25:35.625Z,2.67
2022-12-24T13:28:35.258Z,4.80
2022-12-24T13:31:29.720Z,4.33
2022-12-24T13:34:02.297Z,4.68
2022-12-24T13:37:05.099Z,6.00
2022-12-24T13:40:06.340Z,5.82
2022-12-24T13:43:08.935Z,5.15
2022-12-24T13:45:46.542Z,4.22
2022-12-24T13:48:23.849Z,3.70
2022-12-24T13:50:54.060Z,12.93
2022-12-24T13:53:24.457Z,9.85
2022-12-24T13:55:54.820Z,11.13
2022-12-24T13:58:24.579Z,5.57
2022-12-24T14:00:59.989Z,9.13
2022-12-24T14:03:32.001Z,18.23
2022-12-24T14:06:03.745Z,8.70
2022-12-24T14:08:42.302Z,6.47
2022-12-24T14:11:13.648Z,15.32
2022-12-24T14:14:14.736Z,7.03
2022-12-24T14:16:47.700Z,6.90
2022-12-24T14:19:19.275Z,13.70
2022-12-24T14:21:55.766Z,4.13
2022-12-24T14:24:26.386Z,4.75
2022-12-24T14:26:58.338Z,8.73
2022-12-24T14:29:31.037Z,5.55
2022-12-24T14:32:04.205Z,5.97
2022-12-24T14:34:32.474Z,7.03
2022-12-24T14:37:04.272Z,7.63
2022-12-24T14:39:35.171Z,5.45
2022-12-24T14:42:18.537Z,4.75
2022-12-24T14:44:55.818Z,4.43
2022-12-24T14:47:35.480Z,4.80
2022-12-24T14:50:22.639Z,5.05
2022-12-24T14:53:10.594Z,6.93
2022-12-24T14:55:44.822Z,5.30
2022-12-24T14:58:29.831Z,5.05
2022-12-24T15:01:01.706Z,5.32
2022-12-24T15:03:33.147Z,4.72
2022-12-24T15:06:05.762Z,4.67
2022-12-24T15:08:37.683Z,4.72
2022-12-24T15:11:07.655Z,4.57
2022-12-24T15:13:38.756Z,4.80
2022-12-24T15:16:09.189Z,4.80
2022-12-24T15:18:47.388Z,4.88
2022-12-24T15:21:19.063Z,4.57
2022-12-24T15:23:49.446Z,4.82
2022-12-24T15:26:24.738Z,5.45
2022-12-24T15:29:00.128Z,5.60
2022-12-24T15:31:31.188Z,4.88
2022-12-24T15:34:00.649Z,9.10
2022-12-24T15:36:32.234Z,6.97
2022-12-24T15:39:03.189Z,5.53
2022-12-24T15:41:37.977Z,5.78
2022-12-24T15:44:05.934Z,4.97
2022-12-24T15:46:34.141Z,5.95
2022-12-24T15:49:04.007Z,5.18
2022-12-24T15:51:34.522Z,6.00
2022-12-24T15:54:14.084Z,6.57
2022-12-24T15:56:44.324Z,6.93
2022-12-24T15:59:31.760Z,6.38
2022-12-24T16:02:32.782Z,8.80
2022-12-24T16:05:31.154Z,8.90
2022-12-24T16:08:08.833Z,6.20
2022-12-24T16:10:39.869Z,6.07
2022-12-24T16:13:14.693Z,7.20
2022-12-24T16:15:49.986Z,6.93
2022-12-24T16:18:20.894Z,5.63
2022-12-24T16:20:52.297Z,5.50
2022-12-24T16:23:21.789Z,5.05
2022-12-24T16:25:49.837Z,5.57
2022-12-24T16:28:22.618Z,5.60
2022-12-24T16:30:51.248Z,7.20
2022-12-24T16:33:20.834Z,7.55
2022-12-24T16:35:50.682Z,9.90
2022-12-24T16:38:18.286Z,7.20
2022-12-24T16:40:45.965Z,6.95
2022-12-24T16:43:31.334Z,8.48
2022-12-24T16:46:02.339Z,11.55
2022-12-24T16:48:30.867Z,13.43
2022-12-24T16:50:59.832Z,36.20
2022-12-24T16:53:27.448Z,6.77
2022-12-24T16:55:55.519Z,25.67
2022-12-24T16:58:23.140Z,19.17
2022-12-24T17:00:50.705Z,21.60
2022-12-24T17:03:18.276Z,21.85
2022-12-24T17:05:46.079Z,19.35
2022-12-24T17:08:15.281Z,19.27
2022-12-24T17:10:52.055Z,21.10
2022-12-24T17:13:19.614Z,10.68
2022-12-24T17:15:47.349Z,10.32
2022-12-24T17:18:14.911Z,8.67
2022-12-24T17:20:42.528Z,11.48
2022-12-24T17:23:10.117Z,7.63
2022-12-24T17:25:39.081Z,7.20
2022-12-24T17:28:06.659Z,7.60
2022-12-24T17:30:34.283Z,10.13
2022-12-24T17:33:01.832Z,10.18
2022-12-24T17:35:29.382Z,12.07
2022-12-24T17:37:56.975Z,9.05
2022-12-24T17:40:24.585Z,15.93
2022-12-24T17:42:53.554Z,21.27
2022-12-24T17:45:21.107Z,8.93
2022-12-24T17:47:48.623Z,10.35
2022-12-24T17:50:16.258Z,9.77
2022-12-24T17:52:43.957Z,13.60
2022-12-24T17:55:11.911Z,13.33
2022-12-24T17:57:39.548Z,15.43
2022-12-24T18:00:10.129Z,7.40
2022-12-24T18:02:39.141Z,6.15
2022-12-24T18:05:07.355Z,6.90
2022-12-24T18:07:34.985Z,7.20
2022-12-24T18:10:04.796Z,8.38
2022-12-24T18:12:32.480Z,6.90
2022-12-24T18:15:00.129Z,13.02
2022-12-24T18:17:29.032Z,7.80
2022-12-24T18:19:56.633Z,8.95
2022-12-24T18:22:24.222Z,12.88
2022-12-24T18:24:51.804Z,11.03
2022-12-24T18:27:19.689Z,9.77
2022-12-24T18:29:47.255Z,11.60
2022-12-24T18:32:16.797Z,11.68
2022-12-24T18:34:45.750Z,11.77
2022-12-24T18:37:13.374Z,10.98
2022-12-24T18:39:40.927Z,8.13
2022-12-24T18:42:14.241Z,7.25
2022-12-24T18:44:42.046Z,7.75
2022-12-24T18:47:09.836Z,7.25
2022-12-24T18:49:37.703Z,9.10
2022-12-24T18:52:07.263Z,15.25
2022-12-24T18:54:34.881Z,16.02
2022-12-24T18:57:02.446Z,11.43
2022-12-24T18:59:30.090Z,8.50
2022-12-24T19:01:57.839Z,8.60
2022-12-24T19:04:25.843Z,6.40
2022-12-24T19:06:53.757Z,9.07
2022-12-24T19:09:22.829Z,10.70
2022-12-24T19:11:50.422Z,10.07
2022-12-24T19:14:20.066Z,7.65
2022-12-24T19:16:47.795Z,6.40
2022-12-24T19:19:15.447Z,6.97
2022-12-24T19:21:43.108Z,8.57
2022-12-24T19:24:10.831Z,10.50
2022-12-24T19:26:39.839Z,11.18
2022-12-24T19:29:07.457Z,51.92
2022-12-24T19:31:35.053Z,26.13
2022-12-24T19:34:02.980Z,11.85
2022-12-24T19:36:31.326Z,15.63
2022-12-24T19:38:59.832Z,19.33
2022-12-24T19:41:29.375Z,21.17
2022-12-24T19:43:59.998Z,11.43
2022-12-24T19:46:29.745Z,11.23
2022-12-24T19:48:59.788Z,38.45
2022-12-24T19:51:28.979Z,26.87
2022-12-24T19:53:57.913Z,24.65
2022-12-24T19:56:27.079Z,20.43
2022-12-24T19:58:57.216Z,17.17
2022-12-24T20:01:28.498Z,18.90
2022-12-24T20:03:57.220Z,29.02
2022-12-24T20:06:26.875Z,35.40
2022-12-24T20:08:59.182Z,31.80
2022-12-24T20:11:27.077Z,31.87
2022-12-24T20:13:57.772Z,11.07
2022-12-24T20:16:29.268Z,13.10
2022-12-24T20:18:58.800Z,11.70
2022-12-24T20:21:26.794Z,10.50
2022-12-24T20:23:54.871Z,13.30
2022-12-24T20:26:25.114Z,10.13
2022-12-24T20:28:53.374Z,10.70
2022-12-24T20:31:22.647Z,26.50
2022-12-24T20:33:51.890Z,15.50
2022-12-24T20:36:22.225Z,17.25
2022-12-24T20:38:50.819Z,16.27
2022-12-24T20:41:20.359Z,15.73
2022-12-24T20:43:49.162Z,14.18
2022-12-24T20:46:18.365Z,13.25
2022-12-24T20:48:46.604Z,9.73
2022-12-24T20:51:23.353Z,13.68
2022-12-24T20:53:52.563Z,20.92
2022-12-24T20:56:20.237Z,18.92
2022-12-24T20:58:47.937Z,15.25
2022-12-24T21:01:18.006Z,14.20
2022-12-24T21:03:46.389Z,15.33
2022-12-24T21:06:17.664Z,11.85
2022-12-24T21:08:45.958Z,13.10
2022-12-24T21:11:31.007Z,11.68
2022-12-24T21:13:58.717Z,13.10
2022-12-24T21:16:26.282Z,38.78
2022-12-24T21:18:53.829Z,30.75
2022-12-24T21:21:22.857Z,46.22
2022-12-24T21:23:50.680Z,42.00
2022-12-24T21:26:18.258Z,36.38
2022-12-24T21:28:46.263Z,28.80
2022-12-24T21:31:15.149Z,25.77
2022-12-24T21:33:43.313Z,25.73
2022-12-24T21:36:12.157Z,28.52
2022-12-24T21:38:41.351Z,24.98
2022-12-24T21:41:11.421Z,23.65
2022-12-24T21:43:39.221Z,19.90
2022-12-24T21:46:08.780Z,14.63
2022-12-24T21:48:53.768Z,15.85
2022-12-24T21:51:21.576Z,16.25
2022-12-24T21:54:07.971Z,15.75
2022-12-24T21:56:56.500Z,18.00
2022-12-24T21:59:26.890Z,18.52
2022-12-24T22:01:55.254Z,20.20
2022-12-24T22:04:23.271Z,22.50
2022-12-24T22:07:08.375Z,22.67
2022-12-24T22:09:55.419Z,24.67
2022-12-24T22:12:22.976Z,18.77
2022-12-24T22:14:51.066Z,16.77
2022-12-24T22:17:24.729Z,18.48
2022-12-24T22:19:53.070Z,17.63
2022-12-24T22:22:20.711Z,17.02
2022-12-24T22:24:49.651Z,15.48
2022-12-24T22:27:17.270Z,16.42
2022-12-24T22:29:44.929Z,15.88
2022-12-24T22:32:12.565Z,15.52
2022-12-24T22:34:40.136Z,16.10
2022-12-24T22:37:07.857Z,64.40
2022-12-24T22:39:35.394Z,24.98
2022-12-24T22:42:04.392Z,22.10
2022-12-24T22:44:32.158Z,20.88
2022-12-24T22:46:59.784Z,19.15
2022-12-24T22:49:27.391Z,50.90
2022-12-24T22:51:57.217Z,50.95
2022-12-24T22:54:25.158Z,35.88
2022-12-24T22:56:52.746Z,31.35
2022-12-24T22:59:21.701Z,27.10
2022-12-24T23:01:49.662Z,23.85
2022-12-24T23:04:17.357Z,22.73
2022-12-24T23:06:45.552Z,20.58
2022-12-24T23:09:15.870Z,19.73
2022-12-24T23:11:43.937Z,23.00
2022-12-24T23:14:35.022Z,20.10
2022-12-24T23:17:04.273Z,51.58
2022-12-24T23:19:33.407Z,20.75
2022-12-24T23:22:01.889Z,17.02
2022-12-24T23:24:30.003Z,51.25
2022-12-24T23:26:58.905Z,44.15
2022-12-24T23:29:26.450Z,33.38
2022-12-24T23:31:54.040Z,29.83
2022-12-24T23:34:22.976Z,25.90
2022-12-24T23:36:50.558Z,17.70
2022-12-24T23:39:18.193Z,16.75
2022-12-24T23:41:45.717Z,19.55
2022-12-24T23:44:13.362Z,17.30
2022-12-24T23:46:40.974Z,19.92
2022-12-24T23:49:08.655Z,19.42
2022-12-24T23:51:37.607Z,18.92
2022-12-24T23:54:05.294Z,16.97
2022-12-24T23:56:32.882Z,15.85
2022-12-24T23:59:00.521Z,14.55
